LICR/REG METAR and TAF weather

Enter ICAO airport designator
Station Type Date Time Source
LICR METAR 2019/08/22 15:50 UTC NOAA

LICR 221550Z 24004KT 200V280 CAVOK 29/24 Q1016


Station Type Date Time Source
LICR Decoded METAR 2019/08/22 15:50 UTC NOAA

Station name not available
Aug 22, 2019 - 11:50 AM EDT / 2019.08.22 1550 UTC
Wind: from the WSW (240 degrees) at 5 MPH (4 KT) (direction variable):0
Visibility: greater than 7 mile(s):0
Temperature: 84 F (29 C)
Dew Point: 75 F (24 C)
Relative Humidity: 74%
Pressure (altimeter): 30.00 in. Hg (1016 hPa)
ob: LICR 221550Z 24004KT 200V280 CAVOK 29/24 Q1016
cycle: 16

Station Type Date Time Source
LICR TAF 2019/08/22 12:26 UTC NOAA

TAF LICR 221100Z 2212/2312 35010KT 9999 FEW025
TEMPO 2212/2218 SHRA

Example: see airport list